^^
LKKV - Karlovy Vary, Czech Republic
Entfernung von Station: O 36km
Aktualisierung: 22.01.2020 03:00
gefrierender Nebel, Bedeckt
gefrierender Nebel, Bedeckt
 Wind von veränderlich
Wind: veränderlich 2 km/h
Temperatur: -6°C
Taupunkt: -6°C
Luftfeuchte: 100%
Luftdruck: 1033 hPa
Zusammenfassung: gefrierender Nebel
Wolken: Bedeckt
Sicht: 1 km
Wolken Details: Bedeckt 61 m
2020/01/22 02:00 LKKV 220200Z VRB01KT 0500 R29/0900D FZFG OVC002 M06/M06 Q1033
EDQM - Hof, Germany
Entfernung von Station: W 40km
Aktualisierung: 21.01.2020 19:50
nicht aktuell
Klar
Klar
 Wind von calm
Wind: Windstill
Temperatur: -2°C
Taupunkt: -2°C
Luftfeuchte: 100%
Luftdruck: 1036 hPa
Zusammenfassung: Klar
Sicht: mehr als 10 km
2020/01/21 18:50 EDQM 211850Z 00000KT CAVOK M02/M02 Q1036
 
ETIC - Grafenwoehr, Germany
Entfernung von Station: SSW 72km
Aktualisierung: 22.01.2020 03:18
gefrierender Nebel, Bedeckt
gefrierender Nebel, Bedeckt
 Wind von SW
Wind: SW 6 km/h
Temperatur: -4°C
Taupunkt: -4°C
Luftfeuchte: 100%
Luftdruck: 1034.2 hPa
Zusammenfassung: gefrierender Nebel
Wolken: Bedeckt
Sicht: 1 km
Wolken Details: Bedeckt 30 m
2020/01/22 02:18 ETIC 220218Z AUTO 23003KT 0800 R14/0800V1000 FZFG VV001 M04/M04 A3054 RMK AO2 FZDZE0159FZDZB05E18 SLP370 $
EDAC - Altenburg-Nobitz, Germany
Entfernung von Station: N 80km
Aktualisierung: 22.01.2020 02:50
Klar
Klar
 Wind von SSO
Wind: SSO 6 km/h
Temperatur: -5°C
Taupunkt: -6°C
Luftfeuchte: 93%
Luftdruck: 1035 hPa
Wolken: Klar
Sicht: 10 km
2020/01/22 01:50 EDAC 220150Z AUTO 16003KT 9999 // NCD M05/M06 Q1035
 
LKLN - Plzen Line, Czech Republic
Entfernung von Station: SO 88km
Aktualisierung: 22.01.2020 03:15
Nebel, Bedeckt
Nebel, Bedeckt
 Wind von S
Wind: S 7 km/h
Zusammenfassung: Nebel
Wolken: Bedeckt
Sicht: 1 km
Wolken Details: stark bewölkt 30 m
Bedeckt 152 m
2020/01/22 02:15 LKLN 220215Z AUTO 19004KT 1100 BR BKN001 OVC005 M04/// Q1035
ETIH - Hohenfels (usa-A, Germany
Entfernung von Station: SSW 124km
Aktualisierung: 22.01.2020 02:56
Nebel, Bedeckt
Nebel, Bedeckt
 Wind von calm
Wind: Windstill
Temperatur: -3°C
Taupunkt: -4°C
Luftfeuchte: 93%
Luftdruck: 1035.2 hPa
Zusammenfassung: Nebel
Wolken: Bedeckt
Sicht: 6 km
Wolken Details: Bedeckt 122 m
2020/01/22 01:56 ETIH 220156Z AUTO 00000KT 6000 BR OVC004 M03/M04 A3057 RMK AO2 SLP385 T10271041 $
 
EDDE - Erfurt/Bindersleben, Germany
Entfernung von Station: NW 129km
Aktualisierung: 22.01.2020 03:20
Klar
Klar
 Wind von SSW
Wind: SSW 19 km/h
Temperatur: -5°C
Windkühle: -12°C
Taupunkt: -6°C
Luftfeuchte: 93%
Luftdruck: 1034 hPa
Zusammenfassung: Klar
Sicht: mehr als 10 km
2020/01/22 02:20 EDDE 220220Z 21010KT CAVOK M05/M06 Q1034
EDDP - Leipzig/Schkeudidtz, Germany
Entfernung von Station: N 129km
Aktualisierung: 22.01.2020 03:20
Klar
Klar
 Wind von WSW
Wind: WSW 13 km/h
Temperatur: -3°C
Windkühle: -7°C
Taupunkt: -4°C
Luftfeuchte: 93%
Luftdruck: 1034 hPa
Zusammenfassung: Klar
Sicht: mehr als 10 km
2020/01/22 02:20 EDDP 220220Z 24007KT CAVOK M03/M04 Q1034 NOSIG
 
EDDN - Nuernberg, Germany
Entfernung von Station: SW 130km
Aktualisierung: 22.01.2020 03:20
Nebel, Bedeckt
Nebel, Bedeckt
 Wind von OSO
Wind: OSO 9 km/h
Temperatur: -2°C
Windkühle: -6°C
Taupunkt: -3°C
Luftfeuchte: 93%
Luftdruck: 1035 hPa
Zusammenfassung: Nebel
Wolken: Bedeckt
Sicht: 5 km
Wolken Details: Bedeckt 122 m
2020/01/22 02:20 EDDN 220220Z 11005KT 4500 BR OVC004 M02/M03 Q1035
LKPR - Prague/Ruzyne, Czech Republic
Entfernung von Station: O 133km
Aktualisierung: 22.01.2020 03:10
gefrierender Nebel, Bedeckt
gefrierender Nebel, Bedeckt
 Wind von WSW
Wind: WSW 6 km/h
Temperatur: -4°C
Taupunkt: -4°C
Luftfeuchte: 100%
Luftdruck: 1034 hPa
Zusammenfassung: gefrierender Nebel
Wolken: Bedeckt
Sicht: 1 km
Wolken Details: Bedeckt 61 m
2020/01/22 02:10 LKPR 220210Z 24003KT 200V290 0800 R24/1000N R30/0800U FZFG VV002 M04/M04 Q1034 RMK REG QNH 1029
 
EDDC - Dresden/Klotzsche, Germany
Entfernung von Station: NO 134km
Aktualisierung: 22.01.2020 03:20
Klar
Klar
 Wind von SSW
Wind: SSW 13 km/h
Temperatur: -4°C
Windkühle: -9°C
Taupunkt: -5°C
Luftfeuchte: 93%
Luftdruck: 1034 hPa
Zusammenfassung: Klar
Sicht: mehr als 10 km
2020/01/22 02:20 EDDC 220220Z 20007KT CAVOK M04/M05 Q1034
Besucherstatistik
Besucher gesamt: 2.565.203
Besucher heute: 61
Besucher gestern: 104
gerade online: 3
Seitenaufrufe diese Seite: 4.864
counter Statistiken